createdAt,value
2022-12-11T00:00:21.192Z,25.30
2022-12-11T00:03:15.602Z,21.80
2022-12-11T00:05:47.046Z,22.70
2022-12-11T00:08:16.968Z,24.90
2022-12-11T00:10:50.503Z,26.40
2022-12-11T00:13:20.123Z,25.40
2022-12-11T00:15:49.801Z,26.00
2022-12-11T00:18:19.593Z,24.30
2022-12-11T00:20:49.234Z,25.20
2022-12-11T00:23:19.088Z,25.70
2022-12-11T00:25:49.605Z,25.60
2022-12-11T00:28:19.944Z,25.30
2022-12-11T00:30:50.554Z,25.20
2022-12-11T00:33:20.192Z,25.10
2022-12-11T00:35:50.028Z,25.50
2022-12-11T00:38:21.856Z,25.50
2022-12-11T00:40:51.807Z,25.10
2022-12-11T00:43:21.491Z,24.40
2022-12-11T00:45:51.640Z,24.30
2022-12-11T00:48:21.339Z,23.70
2022-12-11T00:50:51.120Z,24.40
2022-12-11T00:53:20.863Z,25.50
2022-12-11T00:55:50.516Z,24.50
2022-12-11T00:58:20.547Z,23.30
2022-12-11T01:00:50.212Z,24.50
2022-12-11T01:03:20.146Z,26.30
2022-12-11T01:05:56.378Z,25.70
2022-12-11T01:08:26.188Z,24.50
2022-12-11T01:11:06.237Z,21.50
2022-12-11T01:13:36.375Z,23.50
2022-12-11T01:16:10.601Z,23.20
2022-12-11T01:18:41.092Z,22.70
2022-12-11T01:21:13.707Z,23.90
2022-12-11T01:23:43.357Z,24.20
2022-12-11T01:26:16.422Z,24.30
2022-12-11T01:28:48.875Z,23.50
2022-12-11T01:31:21.302Z,24.50
2022-12-11T01:33:53.570Z,23.30
2022-12-11T01:36:24.405Z,23.20
2022-12-11T01:38:54.054Z,25.40
2022-12-11T01:41:24.006Z,23.30
2022-12-11T01:44:07.093Z,23.10
2022-12-11T01:46:38.442Z,22.70
2022-12-11T01:49:13.881Z,24.20
2022-12-11T01:51:49.081Z,23.90
2022-12-11T01:54:22.697Z,25.20
2022-12-11T01:56:56.375Z,23.80
2022-12-11T01:59:30.757Z,24.60
2022-12-11T02:02:07.234Z,23.70
2022-12-11T02:04:40.357Z,24.90
2022-12-11T02:07:11.469Z,23.10
2022-12-11T02:09:46.559Z,23.30
2022-12-11T02:12:26.771Z,22.00
2022-12-11T02:15:07.853Z,22.40
2022-12-11T02:17:46.274Z,23.60
2022-12-11T02:20:26.471Z,24.00
2022-12-11T02:23:53.588Z,23.30
2022-12-11T02:26:56.379Z,23.60
2022-12-11T02:29:35.200Z,24.00
2022-12-11T02:32:14.667Z,22.30
2022-12-11T02:34:56.679Z,23.00
2022-12-11T02:37:31.682Z,24.10
2022-12-11T02:40:06.451Z,22.50
2022-12-11T02:42:39.482Z,21.30
2022-12-11T02:45:13.823Z,21.80
2022-12-11T02:47:47.847Z,23.20
2022-12-11T02:50:23.321Z,23.10
2022-12-11T02:52:57.447Z,22.00
2022-12-11T02:55:30.384Z,23.20
2022-12-11T02:58:09.681Z,24.10
2022-12-11T03:00:39.669Z,21.70
2022-12-11T03:03:09.557Z,20.30
2022-12-11T03:05:39.506Z,21.60
2022-12-11T03:08:09.929Z,21.40
2022-12-11T03:10:40.124Z,23.30
2022-12-11T03:13:10.087Z,22.10
2022-12-11T03:15:57.901Z,22.00
2022-12-11T03:18:39.527Z,24.50
2022-12-11T03:21:19.312Z,21.10
2022-12-11T03:23:57.177Z,19.00
2022-12-11T03:26:28.214Z,19.70
2022-12-11T03:29:04.476Z,20.90
2022-12-11T03:31:43.389Z,24.00
2022-12-11T03:34:22.866Z,22.90
2022-12-11T03:36:56.005Z,16.80
2022-12-11T03:39:33.549Z,22.60
2022-12-11T03:42:08.114Z,20.30
2022-12-11T03:44:38.733Z,15.10
2022-12-11T03:47:10.448Z,23.50
2022-12-11T03:49:44.937Z,21.50
2022-12-11T03:52:17.268Z,22.50
2022-12-11T03:54:50.689Z,23.40
2022-12-11T03:57:27.426Z,18.20
2022-12-11T03:59:57.820Z,22.50
2022-12-11T04:02:27.613Z,19.70
2022-12-11T04:04:57.743Z,20.10
2022-12-11T04:07:28.397Z,22.40
2022-12-11T04:09:58.088Z,21.30
2022-12-11T04:12:27.899Z,20.40
2022-12-11T04:15:03.798Z,20.80
2022-12-11T04:17:54.029Z,21.20
2022-12-11T04:20:42.252Z,20.40
2022-12-11T04:23:35.247Z,19.60
2022-12-11T04:26:11.895Z,20.40
2022-12-11T04:28:42.956Z,19.50
2022-12-11T04:31:15.081Z,18.30
2022-12-11T04:33:45.714Z,18.50
2022-12-11T04:36:15.884Z,19.40
2022-12-11T04:38:45.509Z,20.50
2022-12-11T04:41:17.042Z,19.70
2022-12-11T04:43:46.870Z,15.60
2022-12-11T04:46:20.129Z,19.30
2022-12-11T04:48:56.737Z,19.10
2022-12-11T04:51:27.429Z,19.30
2022-12-11T04:53:57.859Z,21.10
2022-12-11T04:56:27.763Z,17.70
2022-12-11T04:58:57.294Z,15.80
2022-12-11T05:01:27.007Z,17.90
2022-12-11T05:03:58.564Z,20.90
2022-12-11T05:06:28.239Z,21.00
2022-12-11T05:08:57.997Z,20.30
2022-12-11T05:11:27.856Z,18.90
2022-12-11T05:13:57.721Z,21.90
2022-12-11T05:16:27.304Z,19.00
2022-12-11T05:18:57.068Z,19.70
2022-12-11T05:21:30.313Z,22.00
2022-12-11T05:24:05.330Z,21.70
2022-12-11T05:26:35.055Z,19.30
2022-12-11T05:29:05.039Z,22.00
2022-12-11T05:31:34.956Z,21.30
2022-12-11T05:34:04.964Z,21.60
2022-12-11T05:36:35.402Z,21.80
2022-12-11T05:39:06.087Z,19.10
2022-12-11T05:41:35.744Z,18.70
2022-12-11T05:44:06.011Z,15.50
2022-12-11T05:46:35.818Z,18.90
2022-12-11T05:49:06.508Z,18.40
2022-12-11T05:51:38.949Z,19.70
2022-12-11T05:54:09.443Z,19.70
2022-12-11T05:56:39.360Z,18.90
2022-12-11T05:59:09.693Z,20.50
2022-12-11T06:01:43.020Z,19.10
2022-12-11T06:04:14.094Z,17.40
2022-12-11T06:06:43.795Z,16.50
2022-12-11T06:09:16.486Z,21.60
2022-12-11T06:11:46.559Z,19.80
2022-12-11T06:14:16.416Z,19.60
2022-12-11T06:25:35.368Z,13.60
2022-12-11T06:28:09.781Z,18.50
2022-12-11T06:30:43.703Z,18.70
2022-12-11T06:33:17.482Z,19.10
2022-12-11T06:35:51.345Z,18.30
2022-12-11T06:38:25.028Z,17.80
2022-12-11T06:41:02.725Z,14.00
2022-12-11T06:43:39.206Z,17.80
2022-12-11T06:46:16.077Z,17.70
2022-12-11T06:48:51.161Z,16.60
2022-12-11T06:51:26.393Z,15.70
2022-12-11T06:54:01.603Z,16.70
2022-12-11T06:56:37.263Z,17.40
2022-12-11T06:59:14.296Z,19.10
2022-12-11T07:01:48.673Z,14.20
2022-12-11T07:04:24.790Z,17.30
2022-12-11T07:06:59.046Z,18.30
2022-12-11T07:09:34.374Z,18.80
2022-12-11T07:12:09.473Z,17.10
2022-12-11T07:14:43.811Z,17.30
2022-12-11T07:17:18.204Z,16.70
2022-12-11T07:19:52.703Z,18.10
2022-12-11T07:22:26.719Z,16.00
2022-12-11T07:25:01.835Z,18.60
2022-12-11T07:27:36.059Z,14.90
2022-12-11T07:30:13.159Z,19.80
2022-12-11T07:32:46.966Z,17.30
2022-12-11T07:35:21.018Z,13.40
2022-12-11T07:37:54.966Z,18.20
2022-12-11T07:40:30.008Z,18.80
2022-12-11T07:43:03.733Z,19.40
2022-12-11T07:45:38.565Z,16.20
2022-12-11T07:48:12.980Z,11.90
2022-12-11T07:50:47.667Z,15.00
2022-12-11T07:53:21.607Z,15.40
2022-12-11T07:55:55.768Z,12.90
2022-12-11T07:58:30.740Z,16.50
2022-12-11T08:01:04.676Z,13.40
2022-12-11T08:03:38.681Z,16.70
2022-12-11T08:06:14.029Z,13.50
2022-12-11T08:08:48.582Z,9.90
2022-12-11T08:11:22.557Z,14.80
2022-12-11T08:13:57.311Z,15.10
2022-12-11T08:16:31.391Z,14.10
2022-12-11T08:19:05.485Z,12.10
2022-12-11T08:21:40.016Z,12.50
2022-12-11T08:24:16.378Z,16.50
2022-12-11T08:26:51.901Z,15.60
2022-12-11T08:29:25.975Z,14.00
2022-12-11T08:32:00.310Z,15.60
2022-12-11T08:34:34.941Z,13.60
2022-12-11T08:37:09.393Z,13.70
2022-12-11T08:39:44.021Z,14.30
2022-12-11T08:42:18.967Z,14.70
2022-12-11T08:44:53.137Z,12.10
2022-12-11T08:47:27.256Z,14.40
2022-12-11T08:50:01.424Z,14.40
2022-12-11T08:52:37.289Z,12.80
2022-12-11T08:55:14.095Z,12.80
2022-12-11T08:57:48.652Z,14.50
2022-12-11T09:00:23.168Z,12.70
2022-12-11T09:02:57.168Z,12.50
2022-12-11T09:05:30.980Z,12.90
2022-12-11T09:08:05.091Z,12.30
2022-12-11T09:10:38.831Z,10.70
2022-12-11T09:13:12.515Z,12.50
2022-12-11T09:15:46.992Z,13.00
2022-12-11T09:18:20.772Z,13.30
2022-12-11T09:21:04.292Z,12.00
2022-12-11T09:23:39.150Z,12.80
2022-12-11T09:26:16.709Z,12.40
2022-12-11T09:28:53.349Z,11.70
2022-12-11T09:31:30.764Z,13.50
2022-12-11T09:34:11.477Z,10.70
2022-12-11T09:36:47.214Z,10.20
2022-12-11T09:39:22.048Z,10.80
2022-12-11T09:42:05.692Z,12.10
2022-12-11T09:44:47.246Z,10.00
2022-12-11T09:47:32.716Z,10.30
2022-12-11T09:50:18.255Z,11.60
2022-12-11T09:53:12.667Z,11.50
2022-12-11T09:55:57.595Z,10.60
2022-12-11T09:58:47.895Z,11.90
2022-12-11T10:01:34.678Z,11.70
2022-12-11T10:04:30.128Z,9.80
2022-12-11T10:07:14.431Z,11.60
2022-12-11T10:10:01.774Z,12.10
2022-12-11T10:12:47.905Z,13.50
2022-12-11T10:15:50.847Z,12.50
2022-12-11T10:18:29.264Z,14.40
2022-12-11T10:21:07.296Z,16.10
2022-12-11T10:23:48.301Z,14.30
2022-12-11T10:26:24.813Z,11.60
2022-12-11T10:29:02.104Z,12.70
2022-12-11T10:31:48.399Z,14.10
2022-12-11T10:34:32.257Z,13.60
2022-12-11T10:37:07.592Z,15.10
2022-12-11T10:39:43.761Z,11.20
2022-12-11T10:42:25.435Z,14.20
2022-12-11T10:45:06.788Z,13.70
2022-12-11T10:47:41.055Z,12.20
2022-12-11T10:50:32.085Z,13.10
2022-12-11T10:53:07.180Z,13.30
2022-12-11T10:55:49.095Z,13.40
2022-12-11T10:58:27.530Z,11.30
2022-12-11T11:01:14.665Z,12.10
2022-12-11T11:04:01.198Z,10.00
2022-12-11T11:06:36.396Z,12.70
2022-12-11T11:09:36.240Z,8.70
2022-12-11T11:12:26.806Z,10.20
2022-12-11T11:15:13.068Z,10.90
2022-12-11T11:17:55.449Z,11.00
2022-12-11T11:20:33.360Z,12.80
2022-12-11T11:23:18.084Z,12.90
2022-12-11T11:25:58.721Z,11.20
2022-12-11T11:28:39.584Z,12.20
2022-12-11T11:31:19.094Z,11.00
2022-12-11T11:34:00.028Z,10.90
2022-12-11T11:36:37.914Z,13.20
2022-12-11T11:39:27.727Z,9.30
2022-12-11T11:42:11.698Z,10.10
2022-12-11T11:44:55.157Z,10.90
2022-12-11T11:47:38.597Z,8.70
2022-12-11T11:50:20.456Z,8.60
2022-12-11T11:53:03.595Z,9.80
2022-12-11T11:55:50.362Z,9.90
2022-12-11T11:58:35.085Z,10.50
2022-12-11T12:01:16.153Z,9.60
2022-12-11T12:03:53.181Z,10.80
2022-12-11T12:06:50.578Z,10.70
2022-12-11T12:09:41.074Z,12.80
2022-12-11T12:12:32.432Z,12.10
2022-12-11T12:15:27.290Z,11.40
2022-12-11T12:18:12.504Z,12.20
2022-12-11T12:20:56.819Z,7.50
2022-12-11T12:23:58.944Z,10.50
2022-12-11T12:26:36.282Z,9.20
2022-12-11T12:29:26.543Z,6.80
2022-12-11T12:32:18.025Z,10.40
2022-12-11T12:35:13.676Z,9.70
2022-12-11T12:38:01.593Z,8.70
2022-12-11T12:40:41.344Z,8.50
2022-12-11T12:43:46.515Z,12.40
2022-12-11T12:46:35.232Z,8.50
2022-12-11T12:49:23.682Z,11.50
2022-12-11T12:51:59.140Z,12.40
2022-12-11T12:54:37.303Z,10.50
2022-12-11T12:57:12.354Z,10.50
2022-12-11T13:07:34.302Z,8.60
2022-12-11T13:10:26.446Z,7.30
2022-12-11T13:13:01.713Z,8.90
2022-12-11T13:15:42.775Z,8.70
2022-12-11T13:18:37.197Z,9.80
2022-12-11T13:21:32.130Z,10.30
2022-12-11T13:24:31.077Z,10.00
2022-12-11T13:27:27.432Z,8.00
2022-12-11T13:30:25.271Z,8.60
2022-12-11T13:33:16.795Z,8.70
2022-12-11T13:36:03.233Z,7.80
2022-12-11T13:38:40.395Z,10.30
2022-12-11T13:41:17.111Z,8.90
2022-12-11T13:43:53.716Z,8.40
2022-12-11T13:46:33.149Z,8.10
2022-12-11T13:49:09.989Z,9.10
2022-12-11T13:51:55.484Z,9.30
2022-12-11T13:54:33.033Z,9.60
2022-12-11T13:57:21.062Z,8.60
2022-12-11T14:00:01.721Z,10.60
2022-12-11T14:02:42.647Z,6.90
2022-12-11T14:05:17.807Z,8.90
2022-12-11T14:07:58.177Z,7.70
2022-12-11T14:10:35.969Z,8.00
2022-12-11T14:13:22.772Z,9.40
2022-12-11T14:15:57.846Z,8.30
2022-12-11T14:18:37.815Z,8.10
2022-12-11T14:21:22.709Z,8.70
2022-12-11T14:24:00.244Z,7.40
2022-12-11T14:26:38.790Z,9.10
2022-12-11T14:29:31.913Z,7.10
2022-12-11T14:32:08.956Z,6.60
2022-12-11T14:34:50.920Z,9.30
2022-12-11T14:37:28.743Z,9.10
2022-12-11T14:40:11.431Z,8.30
2022-12-11T14:42:58.548Z,8.40
2022-12-11T14:45:40.993Z,7.10
2022-12-11T14:48:23.622Z,8.00
2022-12-11T14:51:03.239Z,8.00
2022-12-11T14:53:43.012Z,7.70
2022-12-11T14:56:24.904Z,10.00
2022-12-11T14:59:02.640Z,8.00
2022-12-11T15:01:38.783Z,7.10
2022-12-11T15:04:30.735Z,6.90
2022-12-11T15:07:23.496Z,7.90
2022-12-11T15:10:00.043Z,8.20
2022-12-11T15:12:36.216Z,9.60
2022-12-11T15:15:21.169Z,9.30
2022-12-11T15:17:56.253Z,6.40
2022-12-11T15:20:32.921Z,9.10
2022-12-11T15:23:12.854Z,9.30
2022-12-11T15:25:58.302Z,8.40
2022-12-11T15:28:36.319Z,9.10
2022-12-11T15:31:28.566Z,8.70
2022-12-11T15:34:19.312Z,6.70
2022-12-11T15:36:53.940Z,7.50
2022-12-11T15:39:28.571Z,10.80
2022-12-11T15:42:12.888Z,11.50
2022-12-11T15:44:47.681Z,9.90
2022-12-11T15:47:26.964Z,8.90
2022-12-11T15:50:10.166Z,10.30
2022-12-11T15:52:44.898Z,13.00
2022-12-11T15:55:19.603Z,12.20
2022-12-11T15:57:59.442Z,8.40
2022-12-11T16:00:34.906Z,7.60
2022-12-11T16:03:10.997Z,9.20
2022-12-11T16:05:45.960Z,10.60
2022-12-11T16:08:24.383Z,8.50
2022-12-11T16:10:59.829Z,10.70
2022-12-11T16:13:34.460Z,9.10
2022-12-11T16:16:09.483Z,9.20
2022-12-11T16:18:44.005Z,10.10
2022-12-11T16:21:21.449Z,9.30
2022-12-11T16:23:56.200Z,8.40
2022-12-11T16:26:30.493Z,9.40
2022-12-11T16:29:05.915Z,9.70
2022-12-11T16:31:40.075Z,8.70
2022-12-11T16:34:14.470Z,7.70
2022-12-11T16:36:48.819Z,8.00
2022-12-11T16:39:23.051Z,9.50
2022-12-11T16:41:57.312Z,7.30
2022-12-11T16:44:31.787Z,7.80
2022-12-11T16:47:06.232Z,10.00
2022-12-11T16:49:41.028Z,6.90
2022-12-11T16:52:21.824Z,8.60
2022-12-11T16:54:58.113Z,8.30
2022-12-11T16:57:32.249Z,7.70
2022-12-11T17:00:09.470Z,8.80
2022-12-11T17:02:44.535Z,9.50
2022-12-11T17:05:19.005Z,7.60
2022-12-11T17:07:53.764Z,9.60
2022-12-11T17:10:28.871Z,7.80
2022-12-11T17:13:05.571Z,7.40
2022-12-11T17:15:45.576Z,8.00
2022-12-11T17:18:21.358Z,8.20
2022-12-11T17:20:56.196Z,7.40
2022-12-11T17:23:30.830Z,8.60
2022-12-11T17:26:07.398Z,8.80
2022-12-11T17:28:43.685Z,7.80
2022-12-11T17:31:22.607Z,7.40
2022-12-11T17:34:01.113Z,7.70
2022-12-11T17:36:36.041Z,9.00
2022-12-11T17:39:11.159Z,9.60
2022-12-11T17:41:45.709Z,10.00
2022-12-11T17:44:20.980Z,7.10
2022-12-11T17:46:55.698Z,9.50
2022-12-11T17:49:30.300Z,9.60
2022-12-11T17:52:04.536Z,10.20
2022-12-11T17:54:39.535Z,10.70
2022-12-11T17:57:13.767Z,10.20
2022-12-11T17:59:48.283Z,8.70
2022-12-11T18:02:22.166Z,9.90
2022-12-11T18:04:56.461Z,8.60
2022-12-11T18:07:30.426Z,10.30
2022-12-11T18:10:07.781Z,7.60
2022-12-11T18:12:42.084Z,11.20
2022-12-11T18:15:18.595Z,9.60
2022-12-11T18:17:52.741Z,7.90
2022-12-11T18:20:28.560Z,8.90
2022-12-11T18:23:03.911Z,9.20
2022-12-11T18:25:38.469Z,9.20
2022-12-11T18:28:12.674Z,9.10
2022-12-11T18:30:47.689Z,10.40
2022-12-11T18:33:23.764Z,10.30
2022-12-11T18:35:58.421Z,9.50
2022-12-11T18:38:32.635Z,7.90
2022-12-11T18:41:10.828Z,9.60
2022-12-11T18:43:46.117Z,9.30
2022-12-11T18:46:22.887Z,8.40
2022-12-11T18:48:58.567Z,9.70
2022-12-11T18:51:32.518Z,10.30
2022-12-11T18:54:07.500Z,10.00
2022-12-11T18:56:41.996Z,10.40
2022-12-11T18:59:17.558Z,10.80
2022-12-11T19:01:52.180Z,10.90
2022-12-11T19:04:27.602Z,11.20
2022-12-11T19:07:05.143Z,10.90
2022-12-11T19:09:44.825Z,11.10
2022-12-11T19:12:22.779Z,10.90
2022-12-11T19:14:56.964Z,9.60
2022-12-11T19:17:32.274Z,11.30
2022-12-11T19:20:25.440Z,12.20
2022-12-11T19:23:03.215Z,11.40
2022-12-11T19:25:42.719Z,8.40
2022-12-11T19:28:18.445Z,9.50
2022-12-11T19:30:53.844Z,12.00
2022-12-11T19:33:27.754Z,11.20
2022-12-11T19:36:16.095Z,11.70
2022-12-11T19:38:51.205Z,12.40
2022-12-11T19:41:28.285Z,12.60
2022-12-11T19:44:03.264Z,13.00
2022-12-11T19:46:40.316Z,12.10
2022-12-11T19:49:15.869Z,11.10
2022-12-11T19:51:51.498Z,12.30
2022-12-11T19:54:26.997Z,12.40
2022-12-11T19:57:01.845Z,9.90
2022-12-11T19:59:39.470Z,8.50
2022-12-11T20:02:14.770Z,13.40
2022-12-11T20:04:51.684Z,9.50
2022-12-11T20:07:30.679Z,9.20
2022-12-11T20:10:07.360Z,9.30
2022-12-11T20:12:41.942Z,11.10
2022-12-11T20:15:19.678Z,10.50
2022-12-11T20:17:58.135Z,11.00
2022-12-11T20:20:33.811Z,13.90
2022-12-11T20:23:08.390Z,11.80
2022-12-11T20:25:46.051Z,13.10
2022-12-11T20:28:20.855Z,11.90
2022-12-11T20:30:57.162Z,12.00
2022-12-11T20:33:31.748Z,11.60
2022-12-11T20:36:10.094Z,12.10
2022-12-11T20:38:45.332Z,12.40
2022-12-11T20:41:23.413Z,13.60
2022-12-11T20:43:58.460Z,11.40
2022-12-11T20:46:33.194Z,9.90
2022-12-11T20:49:13.039Z,12.30
2022-12-11T20:51:47.566Z,10.50
2022-12-11T20:54:22.121Z,11.40
2022-12-11T20:56:57.259Z,12.20
2022-12-11T20:59:31.195Z,10.20
2022-12-11T21:02:08.486Z,11.60
2022-12-11T21:04:43.924Z,11.30
2022-12-11T21:07:18.273Z,11.10
2022-12-11T21:09:52.277Z,11.00
2022-12-11T21:12:31.301Z,10.50
2022-12-11T21:15:06.130Z,12.50
2022-12-11T21:17:41.733Z,11.60
2022-12-11T21:20:16.238Z,11.60
2022-12-11T21:22:50.279Z,13.60
2022-12-11T21:25:24.530Z,12.90
2022-12-11T21:27:58.954Z,14.30
2022-12-11T21:30:33.234Z,12.40
2022-12-11T21:33:09.398Z,11.90
2022-12-11T21:35:44.086Z,9.40
2022-12-11T21:38:17.999Z,13.20
2022-12-11T21:40:52.614Z,10.90
2022-12-11T21:43:28.740Z,13.40
2022-12-11T21:46:03.475Z,8.50
2022-12-11T21:48:38.308Z,9.70
2022-12-11T21:51:16.198Z,12.00
2022-12-11T21:53:50.349Z,12.20
2022-12-11T21:56:28.740Z,12.40
2022-12-11T21:59:02.813Z,11.60
2022-12-11T22:01:41.195Z,12.00
2022-12-11T22:04:16.998Z,11.70
2022-12-11T22:06:51.305Z,13.20
2022-12-11T22:09:25.121Z,10.30
2022-12-11T22:11:59.031Z,14.00
2022-12-11T22:14:33.403Z,12.80
2022-12-11T22:17:07.447Z,13.10
2022-12-11T22:19:42.395Z,11.00
2022-12-11T22:22:17.198Z,13.40
2022-12-11T22:24:51.491Z,11.00
2022-12-11T22:27:25.568Z,13.70
2022-12-11T22:30:01.689Z,12.60
2022-12-11T22:32:35.655Z,13.00
2022-12-11T22:35:11.763Z,13.20
2022-12-11T22:37:46.108Z,12.10
2022-12-11T22:40:20.465Z,12.30
2022-12-11T22:42:54.653Z,12.20
2022-12-11T22:45:29.751Z,12.30
2022-12-11T22:48:04.111Z,11.50
2022-12-11T22:50:39.237Z,9.70
2022-12-11T22:53:13.666Z,10.60
2022-12-11T22:55:47.782Z,13.90
2022-12-11T22:58:22.191Z,12.70
2022-12-11T23:00:56.972Z,13.70
2022-12-11T23:03:31.285Z,11.10
2022-12-11T23:06:09.047Z,12.60
2022-12-11T23:08:44.185Z,14.40
2022-12-11T23:11:22.833Z,12.30
2022-12-11T23:13:58.164Z,12.50
2022-12-11T23:16:33.972Z,10.50
2022-12-11T23:19:08.369Z,12.50
2022-12-11T23:21:43.665Z,13.50
2022-12-11T23:24:18.847Z,11.70
2022-12-11T23:26:52.789Z,12.40
2022-12-11T23:29:27.286Z,12.70
2022-12-11T23:32:01.129Z,11.70
2022-12-11T23:34:35.488Z,13.70
2022-12-11T23:37:10.795Z,13.50
2022-12-11T23:39:45.145Z,13.90
2022-12-11T23:42:19.053Z,12.40
2022-12-11T23:44:53.066Z,6.30
2022-12-11T23:47:27.154Z,14.00
2022-12-11T23:50:01.008Z,13.60
2022-12-11T23:52:35.023Z,14.30
2022-12-11T23:55:11.416Z,14.50
2022-12-11T23:57:46.001Z,14.20
